Terminal Aerodrome Forecast
Issued by NWS

Home | Current Version | Previous Version | Text Only | Print | Product List | Glossary On
Versions: 1 2 3 4 5 6 7 8 9 10 11 12 13 14 15 16 17
000
FTUS44 KLZK 281700
TAFPBF
TAF
KPBF 281720Z 2818/2918 01008KT P6SM VCSH BKN015 OVC035
      TEMPO 2818/2822 -RA SCT015
     FM282200 01005KT P6SM VCSH SCT015 OVC050
     FM290600 VRB04KT P6SM VCFG BKN015
      TEMPO 2909/2913 4SM BR
     FM291500 02005KT P6SM SCT015 BKN250=

USA.gov is the U.S. government's official web portal to all federal, state and local government web resources and services.